Wetterdaten: Woche 06.04.26 - 12.04.26 (KW15)
Datum Zeit Temp. A. Feuchte A. Luftdruck Niederschlag Windgeschw. Windrichtung Sonnenschein Taupunkt Windchill Windböen
06.04.2026 00:00 18,7 °C 32 % 1021,7 hPa 0,0 l/m² 3,1 km/h (1 Bft) NW 0,00 h 1,7 °C 18,7 °C 4,7 km/h (1 Bft)
06.04.2026 01:00 18,8 °C 32 % 1021,9 hPa 0,0 l/m² 1,5 km/h (1 Bft) N-NO 0,00 h 1,5 °C 18,8 °C 2,2 km/h (1 Bft)
06.04.2026 02:00 18,2 °C 32 % 1021,7 hPa 0,0 l/m² 0,9 km/h (0 Bft) O 0,00 h 1,2 °C 18,2 °C 1,4 km/h (1 Bft)
06.04.2026 03:00 17,2 °C 32 % 1021,6 hPa 0,0 l/m² 0,7 km/h (0 Bft) W 0,00 h 0,6 °C 17,2 °C 1,4 km/h (1 Bft)
06.04.2026 04:00 16,6 °C 34 % 1021,7 hPa 0,0 l/m² 0,5 km/h (0 Bft) N-NW 0,00 h 0,6 °C 16,6 °C 0,6 km/h (0 Bft)
06.04.2026 05:00 15,6 °C 36 % 1022,0 hPa 0,0 l/m² 1,3 km/h (1 Bft) NW 0,00 h 0,7 °C 15,6 °C 2,4 km/h (1 Bft)
06.04.2026 06:00 15,8 °C 39 % 1022,4 hPa 0,0 l/m² 2,7 km/h (1 Bft) SW 0,00 h 1,8 °C 15,8 °C 3,5 km/h (1 Bft)
06.04.2026 07:00 15,0 °C 38 % 1023,0 hPa 0,0 l/m² 2,0 km/h (1 Bft) W-NW 0,00 h 0,9 °C 15,0 °C 2,9 km/h (1 Bft)
06.04.2026 08:00 15,1 °C 39 % 1023,6 hPa 0,0 l/m² 4,0 km/h (1 Bft) W 0,00 h 1,1 °C 15,1 °C 6,1 km/h (2 Bft)
06.04.2026 09:00 15,4 °C 38 % 1024,1 hPa 0,0 l/m² 4,3 km/h (1 Bft) NW 0,00 h 1,1 °C 15,4 °C 6,6 km/h (2 Bft)
06.04.2026 10:00 15,8 °C 37 % 1024,9 hPa 0,0 l/m² 3,4 km/h (1 Bft) W 0,00 h 1,1 °C 15,8 °C 4,5 km/h (1 Bft)
06.04.2026 11:00 16,4 °C 36 % 1024,7 hPa 0,0 l/m² 3,9 km/h (1 Bft) W 0,00 h 1,3 °C 16,4 °C 5,6 km/h (1 Bft)
06.04.2026 12:00 17,4 °C 35 % 1024,8 hPa 0,0 l/m² 4,9 km/h (1 Bft) N-NO 0,00 h 1,8 °C 17,4 °C 6,5 km/h (2 Bft)
06.04.2026 13:00 17,5 °C 34 % 1024,8 hPa 0,0 l/m² 5,3 km/h (1 Bft) SO 0,23 h 1,6 °C 17,5 °C 7,2 km/h (2 Bft)
06.04.2026 14:00 18,3 °C 35 % 1024,5 hPa 0,0 l/m² 4,6 km/h (1 Bft) O-SO 1,00 h 2,4 °C 18,3 °C 6,5 km/h (2 Bft)
06.04.2026 15:00 19,4 °C 33 % 1023,6 hPa 0,0 l/m² 5,1 km/h (1 Bft) W-SW 1,00 h 2,9 °C 19,4 °C 7,7 km/h (2 Bft)
06.04.2026 16:00 19,4 °C 31 % 1023,5 hPa 0,0 l/m² 5,3 km/h (1 Bft) W 1,00 h 2,0 °C 19,4 °C 6,3 km/h (2 Bft)
06.04.2026 17:00 18,1 °C 30 % 1023,5 hPa 0,0 l/m² 4,8 km/h (1 Bft) NW 0,33 h 0,1 °C 18,1 °C 6,3 km/h (2 Bft)
06.04.2026 18:00 17,0 °C 30 % 1023,4 hPa 0,0 l/m² 3,3 km/h (1 Bft) O-NO 0,00 h -0,9 °C 17,0 °C 4,4 km/h (1 Bft)
06.04.2026 19:00 15,6 °C 30 % 1023,8 hPa 0,0 l/m² 1,2 km/h (1 Bft) W 0,00 h -1,9 °C 15,6 °C 1,8 km/h (1 Bft)
06.04.2026 20:00 14,2 °C 30 % 1024,1 hPa 0,0 l/m² 1,0 km/h (0 Bft) SO 0,00 h -3,1 °C 14,2 °C 2,0 km/h (1 Bft)
06.04.2026 21:00 13,3 °C 31 % 1024,7 hPa 0,0 l/m² 0,6 km/h (0 Bft) O-NO 0,00 h -3,3 °C 13,3 °C 1,1 km/h (1 Bft)
06.04.2026 22:00 11,3 °C 30 % 1025,0 hPa 0,0 l/m² 0,3 km/h (0 Bft) N 0,00 h -5,5 °C 11,3 °C 0,7 km/h (0 Bft)
06.04.2026 23:00 10,2 °C 30 % 1025,6 hPa 0,0 l/m² 0,4 km/h (0 Bft) N 0,00 h -6,8 °C 10,2 °C 0,7 km/h (0 Bft)
07.04.2026 00:00 10,0 °C 29 % 1025,5 hPa 0,0 l/m² 0,4 km/h (0 Bft) N 0,00 h -7,3 °C 10,0 °C 0,5 km/h (0 Bft)
07.04.2026 01:00 8,1 °C 27 % 1025,9 hPa 0,0 l/m² 0,1 km/h (0 Bft) N 0,00 h -9,6 °C 8,1 °C 0,2 km/h (0 Bft)
07.04.2026 02:00 7,0 °C 27 % 1025,5 hPa 0,0 l/m² 0,1 km/h (0 Bft) N 0,00 h -10,7 °C 7,0 °C 0,1 km/h (0 Bft)
07.04.2026 03:00 6,2 °C 27 % 1025,1 hPa 0,0 l/m² 0,0 km/h (0 Bft) N 0,00 h -11,4 °C 6,2 °C 0,0 km/h (0 Bft)
07.04.2026 04:00 5,6 °C 27 % 1025,0 hPa 0,0 l/m² 0,0 km/h (0 Bft) N 0,00 h -11,9 °C 5,6 °C 0,0 km/h (0 Bft)
07.04.2026 05:00 4,9 °C 28 % 1024,3 hPa 0,0 l/m² 0,0 km/h (0 Bft) N 0,00 h -12,1 °C 4,9 °C 0,0 km/h (0 Bft)
07.04.2026 06:00 4,6 °C 29 % 1024,8 hPa 0,0 l/m² 0,0 km/h (0 Bft) N 0,00 h -11,7 °C 4,6 °C 0,0 km/h (0 Bft)
07.04.2026 07:00 5,7 °C 31 % 1024,3 hPa 0,0 l/m² 0,2 km/h (0 Bft) N 0,00 h -10,2 °C 5,7 °C 0,5 km/h (0 Bft)
07.04.2026 08:00 8,8 °C 30 % 1024,2 hPa 0,0 l/m² 1,0 km/h (0 Bft) NW 0,00 h -7,8 °C 8,8 °C 1,8 km/h (1 Bft)
07.04.2026 09:00 10,3 °C 28 % 1024,2 hPa 0,0 l/m² 1,4 km/h (1 Bft) O-SO 0,00 h -7,2 °C 10,3 °C 2,3 km/h (1 Bft)
07.04.2026 10:00 11,6 °C 28 % 1024,2 hPa 0,0 l/m² 1,8 km/h (1 Bft) W-SW 0,00 h -6,1 °C 11,6 °C 2,7 km/h (1 Bft)
07.04.2026 11:00 13,7 °C 29 % 1023,7 hPa 0,0 l/m² 1,8 km/h (1 Bft) O-SO 0,00 h -4,1 °C 13,7 °C 2,3 km/h (1 Bft)
07.04.2026 12:00 15,5 °C 28 % 1022,9 hPa 0,0 l/m² 2,1 km/h (1 Bft) W-SW 0,00 h -2,8 °C 15,5 °C 2,9 km/h (1 Bft)
07.04.2026 13:00 16,8 °C 28 % 1021,8 hPa 0,0 l/m² 2,6 km/h (1 Bft) W-SW 0,57 h -1,9 °C 16,8 °C 3,3 km/h (1 Bft)
07.04.2026 14:00 18,6 °C 28 % 1021,0 hPa 0,0 l/m² 2,1 km/h (1 Bft) W-SW 1,00 h -0,3 °C 18,6 °C 2,7 km/h (1 Bft)
07.04.2026 15:00 19,8 °C 26 % 1020,1 hPa 0,0 l/m² 3,6 km/h (1 Bft) W-SW 1,00 h -0,5 °C 19,8 °C 5,3 km/h (1 Bft)
07.04.2026 16:00 20,0 °C 25 % 1019,8 hPa 0,0 l/m² 3,7 km/h (1 Bft) W 1,00 h -0,6 °C 20,0 °C 5,2 km/h (1 Bft)
07.04.2026 17:00 19,5 °C 25 % 1019,9 hPa 0,0 l/m² 3,7 km/h (1 Bft) W 1,00 h -1,0 °C 19,5 °C 5,4 km/h (1 Bft)
07.04.2026 18:00 18,3 °C 25 % 1019,6 hPa 0,0 l/m² 2,4 km/h (1 Bft) SW 0,67 h -2,1 °C 18,3 °C 2,8 km/h (1 Bft)
07.04.2026 19:00 15,1 °C 25 % 1020,2 hPa 0,0 l/m² 0,3 km/h (0 Bft) N 0,00 h -4,7 °C 15,1 °C 0,5 km/h (0 Bft)
07.04.2026 20:00 12,7 °C 25 % 1021,1 hPa 0,0 l/m² 0,3 km/h (0 Bft) N 0,00 h -6,8 °C 12,7 °C 0,5 km/h (0 Bft)
07.04.2026 21:00 10,6 °C 25 % 1022,2 hPa 0,0 l/m² 0,2 km/h (0 Bft) N 0,00 h -8,5 °C 10,6 °C 0,4 km/h (0 Bft)
07.04.2026 22:00 9,6 °C 25 % 1022,9 hPa 0,0 l/m² 0,3 km/h (0 Bft) N 0,00 h -9,4 °C 9,6 °C 0,3 km/h (0 Bft)
07.04.2026 23:00 9,2 °C 25 % 1023,8 hPa 0,0 l/m² 0,7 km/h (0 Bft) O 0,00 h -9,8 °C 9,2 °C 1,3 km/h (1 Bft)
08.04.2026 00:00 7,5 °C 25 % 1024,8 hPa 0,0 l/m² 0,2 km/h (0 Bft) N 0,00 h -11,2 °C 7,5 °C 0,1 km/h (0 Bft)
08.04.2026 01:00 5,8 °C 25 % 1025,1 hPa 0,0 l/m² 0,3 km/h (0 Bft) N 0,00 h -12,7 °C 5,8 °C 0,5 km/h (0 Bft)
08.04.2026 02:00 6,3 °C 25 % 1024,9 hPa 0,0 l/m² 1,4 km/h (1 Bft) W-NW 0,00 h -12,2 °C 6,3 °C 2,6 km/h (1 Bft)
08.04.2026 03:00 6,4 °C 25 % 1024,9 hPa 0,0 l/m² 1,9 km/h (1 Bft) N-NO 0,00 h -12,2 °C 6,4 °C 2,2 km/h (1 Bft)
08.04.2026 04:00 6,0 °C 25 % 1024,9 hPa 0,0 l/m² 1,4 km/h (1 Bft) W-SW 0,00 h -12,5 °C 6,0 °C 2,2 km/h (1 Bft)
08.04.2026 05:00 5,4 °C 25 % 1025,1 hPa 0,0 l/m² 1,0 km/h (0 Bft) S 0,00 h -13,0 °C 5,4 °C 1,5 km/h (1 Bft)
08.04.2026 06:00 4,0 °C 26 % 1025,3 hPa 0,0 l/m² 0,3 km/h (0 Bft) N 0,00 h -13,9 °C 4,0 °C 0,4 km/h (0 Bft)
08.04.2026 07:00 4,5 °C 27 % 1025,9 hPa 0,0 l/m² 0,6 km/h (0 Bft) O-NO 0,00 h -12,8 °C 4,5 °C 1,0 km/h (0 Bft)
08.04.2026 08:00 5,9 °C 27 % 1025,8 hPa 0,0 l/m² 1,4 km/h (1 Bft) SO 0,00 h -11,6 °C 5,9 °C 2,7 km/h (1 Bft)
08.04.2026 09:00 7,1 °C 27 % 1025,9 hPa 0,0 l/m² 2,0 km/h (1 Bft) W-SW 0,00 h -10,5 °C 7,1 °C 3,4 km/h (1 Bft)
08.04.2026 10:00 8,6 °C 27 % 1025,8 hPa 0,0 l/m² 2,6 km/h (1 Bft) W 0,00 h -9,4 °C 8,6 °C 3,6 km/h (1 Bft)
08.04.2026 11:00 10,4 °C 26 % 1025,2 hPa 0,0 l/m² 2,9 km/h (1 Bft) W-SW 0,00 h -8,4 °C 10,4 °C 3,9 km/h (1 Bft)
08.04.2026 12:00 12,2 °C 25 % 1024,8 hPa 0,0 l/m² 2,9 km/h (1 Bft) W-NW 0,00 h -7,2 °C 12,2 °C 4,2 km/h (1 Bft)
08.04.2026 13:00 13,3 °C 25 % 1024,1 hPa 0,0 l/m² 3,3 km/h (1 Bft) W 0,57 h -6,3 °C 13,3 °C 4,6 km/h (1 Bft)
08.04.2026 14:00 14,2 °C 25 % 1023,3 hPa 0,0 l/m² 3,3 km/h (1 Bft) W-SW 1,00 h -5,5 °C 14,2 °C 4,2 km/h (1 Bft)
08.04.2026 15:00 14,9 °C 25 % 1022,7 hPa 0,0 l/m² 3,4 km/h (1 Bft) W 1,00 h -5,0 °C 14,9 °C 4,9 km/h (1 Bft)
08.04.2026 16:00 15,2 °C 25 % 1022,2 hPa 0,0 l/m² 3,1 km/h (1 Bft) S 1,00 h -4,7 °C 15,2 °C 4,5 km/h (1 Bft)
08.04.2026 17:00 15,0 °C 25 % 1022,3 hPa 0,0 l/m² 2,4 km/h (1 Bft) SW 1,00 h -4,9 °C 15,0 °C 3,5 km/h (1 Bft)
08.04.2026 18:00 13,8 °C 25 % 1022,3 hPa 0,0 l/m² 1,3 km/h (1 Bft) W-SW 0,63 h -5,9 °C 13,8 °C 1,2 km/h (1 Bft)
08.04.2026 19:00 10,7 °C 25 % 1022,7 hPa 0,0 l/m² 0,1 km/h (0 Bft) N 0,00 h -8,5 °C 10,7 °C 0,3 km/h (0 Bft)
08.04.2026 20:00 8,4 °C 25 % 1023,3 hPa 0,0 l/m² 0,2 km/h (0 Bft) N 0,00 h -10,4 °C 8,4 °C 0,2 km/h (0 Bft)
08.04.2026 21:00 6,9 °C 25 % 1024,1 hPa 0,0 l/m² 0,2 km/h (0 Bft) N 0,00 h -11,7 °C 6,9 °C 0,2 km/h (0 Bft)
08.04.2026 22:00 5,4 °C 27 % 1024,5 hPa 0,0 l/m² 0,0 km/h (0 Bft) N 0,00 h -12,3 °C 5,4 °C 0,1 km/h (0 Bft)
08.04.2026 23:00 4,2 °C 29 % 1024,7 hPa 0,0 l/m² 0,1 km/h (0 Bft) N 0,00 h -12,2 °C 4,2 °C 0,2 km/h (0 Bft)
09.04.2026 00:00 3,3 °C 32 % 1024,8 hPa 0,0 l/m² 0,1 km/h (0 Bft) N 0,00 h -11,7 °C 3,3 °C 0,1 km/h (0 Bft)
09.04.2026 01:00 3,1 °C 34 % 1024,3 hPa 0,0 l/m² 0,5 km/h (0 Bft) W-SW 0,00 h -11,1 °C 3,1 °C 1,1 km/h (1 Bft)
09.04.2026 02:00 3,6 °C 33 % 1023,8 hPa 0,0 l/m² 0,7 km/h (0 Bft) O-SO 0,00 h -11,1 °C 3,6 °C 1,1 km/h (1 Bft)
09.04.2026 03:00 3,2 °C 32 % 1023,1 hPa 0,0 l/m² 0,4 km/h (0 Bft) N 0,00 h -11,8 °C 3,2 °C 0,8 km/h (0 Bft)
09.04.2026 04:00 3,2 °C 32 % 1022,2 hPa 0,0 l/m² 1,2 km/h (1 Bft) W 0,00 h -12,0 °C 3,2 °C 1,6 km/h (1 Bft)
09.04.2026 05:00 2,6 °C 31 % 1021,8 hPa 0,0 l/m² 0,3 km/h (0 Bft) N 0,00 h -12,6 °C 2,6 °C 0,6 km/h (0 Bft)
09.04.2026 06:00 1,7 °C 33 % 1021,3 hPa 0,0 l/m² 0,0 km/h (0 Bft) N 0,00 h -12,7 °C 1,7 °C 0,0 km/h (0 Bft)
09.04.2026 07:00 3,3 °C 34 % 1021,0 hPa 0,0 l/m² 0,4 km/h (0 Bft) O-SO 0,00 h -10,9 °C 3,3 °C 1,0 km/h (0 Bft)
09.04.2026 08:00 6,0 °C 32 % 1020,8 hPa 0,0 l/m² 1,7 km/h (1 Bft) O-SO 0,00 h -9,3 °C 6,0 °C 2,7 km/h (1 Bft)
09.04.2026 09:00 7,5 °C 31 % 1020,7 hPa 0,0 l/m² 2,2 km/h (1 Bft) S 0,00 h -8,6 °C 7,5 °C 3,4 km/h (1 Bft)
09.04.2026 10:00 8,8 °C 30 % 1020,4 hPa 0,0 l/m² 2,7 km/h (1 Bft) W 0,00 h -7,8 °C 8,8 °C 4,6 km/h (1 Bft)
09.04.2026 11:00 10,3 °C 29 % 1020,0 hPa 0,0 l/m² 3,1 km/h (1 Bft) NW 0,00 h -6,8 °C 10,3 °C 4,2 km/h (1 Bft)
09.04.2026 12:00 12,0 °C 29 % 1019,2 hPa 0,0 l/m² 3,0 km/h (1 Bft) W-SW 0,00 h -5,6 °C 12,0 °C 3,4 km/h (1 Bft)
09.04.2026 13:00 13,4 °C 27 % 1018,2 hPa 0,0 l/m² 2,8 km/h (1 Bft) W 0,60 h -5,1 °C 13,4 °C 4,0 km/h (1 Bft)
09.04.2026 14:00 14,6 °C 26 % 1017,5 hPa 0,0 l/m² 3,2 km/h (1 Bft) W 1,00 h -4,8 °C 14,6 °C 4,6 km/h (1 Bft)
09.04.2026 15:00 15,4 °C 25 % 1017,0 hPa 0,0 l/m² 3,0 km/h (1 Bft) W-SW 1,00 h -4,5 °C 15,4 °C 4,4 km/h (1 Bft)
09.04.2026 16:00 15,7 °C 25 % 1016,5 hPa 0,0 l/m² 3,0 km/h (1 Bft) W 1,00 h -4,3 °C 15,7 °C 4,2 km/h (1 Bft)
09.04.2026 17:00 15,6 °C 25 % 1016,1 hPa 0,0 l/m² 2,8 km/h (1 Bft) SW 1,00 h -4,3 °C 15,6 °C 3,9 km/h (1 Bft)
09.04.2026 18:00 14,5 °C 25 % 1016,2 hPa 0,0 l/m² 1,8 km/h (1 Bft) W 0,83 h -5,2 °C 14,5 °C 2,4 km/h (1 Bft)
09.04.2026 19:00 11,2 °C 25 % 1016,3 hPa 0,0 l/m² 0,1 km/h (0 Bft) N 0,00 h -8,1 °C 11,2 °C 0,1 km/h (0 Bft)
09.04.2026 20:00 9,2 °C 25 % 1016,5 hPa 0,0 l/m² 0,1 km/h (0 Bft) N 0,00 h -9,8 °C 9,2 °C 0,0 km/h (0 Bft)
09.04.2026 21:00 7,9 °C 25 % 1017,2 hPa 0,0 l/m² 0,1 km/h (0 Bft) N 0,00 h -10,9 °C 7,9 °C 0,1 km/h (0 Bft)
09.04.2026 22:00 6,4 °C 25 % 1017,5 hPa 0,0 l/m² 0,0 km/h (0 Bft) N 0,00 h -12,2 °C 6,4 °C 0,2 km/h (0 Bft)
09.04.2026 23:00 4,6 °C 26 % 1017,9 hPa 0,0 l/m² 0,0 km/h (0 Bft) N 0,00 h -13,3 °C 4,6 °C 0,1 km/h (0 Bft)
10.04.2026 00:00 3,5 °C 26 % 1018,1 hPa 0,0 l/m² 0,0 km/h (0 Bft) N 0,00 h -14,1 °C 3,5 °C 0,0 km/h (0 Bft)
10.04.2026 01:00 3,0 °C 26 % 1017,9 hPa 0,0 l/m² 0,0 km/h (0 Bft) N 0,00 h -14,4 °C 3,0 °C 0,0 km/h (0 Bft)
10.04.2026 02:00 2,0 °C 28 % 1017,5 hPa 0,0 l/m² 0,0 km/h (0 Bft) N 0,00 h -14,6 °C 2,0 °C 0,0 km/h (0 Bft)
10.04.2026 03:00 0,5 °C 29 % 1017,2 hPa 0,0 l/m² 0,0 km/h (0 Bft) N 0,00 h -15,3 °C 0,5 °C 0,0 km/h (0 Bft)
10.04.2026 04:00 0,3 °C 31 % 1016,9 hPa 0,0 l/m² 0,0 km/h (0 Bft) N 0,00 h -14,7 °C 0,3 °C 0,0 km/h (0 Bft)
10.04.2026 05:00 0,2 °C 33 % 1016,5 hPa 0,0 l/m² 0,0 km/h (0 Bft) N 0,00 h -14,3 °C 0,2 °C 0,0 km/h (0 Bft)
10.04.2026 06:00 0,0 °C 34 % 1016,1 hPa 0,0 l/m² 0,0 km/h (0 Bft) N 0,00 h -14,1 °C 0,0 °C 0,0 km/h (0 Bft)
10.04.2026 07:00 0,7 °C 33 % 1016,1 hPa 0,0 l/m² 0,0 km/h (0 Bft) N 0,00 h -13,6 °C 0,7 °C 0,0 km/h (0 Bft)
10.04.2026 08:00 2,1 °C 34 % 1015,9 hPa 0,0 l/m² 0,3 km/h (0 Bft) N 0,00 h -12,0 °C 2,1 °C 0,7 km/h (0 Bft)
10.04.2026 09:00 3,2 °C 34 % 1016,0 hPa 0,0 l/m² 0,6 km/h (0 Bft) S 0,07 h -11,1 °C 3,2 °C 0,9 km/h (0 Bft)
10.04.2026 10:00 3,2 °C 35 % 1016,9 hPa 0,0 l/m² 0,3 km/h (0 Bft) N 0,00 h -10,8 °C 3,2 °C 0,5 km/h (0 Bft)
10.04.2026 11:00 1,6 °C 37 % 1018,1 hPa 0,0 l/m² 0,0 km/h (0 Bft) N 0,00 h -11,4 °C 1,6 °C 0,0 km/h (0 Bft)
10.04.2026 12:00 1,1 °C 44 % 1018,6 hPa 0,0 l/m² 0,1 km/h (0 Bft) N 0,00 h -9,8 °C 1,1 °C 0,5 km/h (0 Bft)
10.04.2026 13:00 1,1 °C 44 % 1018,8 hPa 1,4 l/m² 0,0 km/h (0 Bft) N 0,00 h -9,7 °C 1,1 °C 0,0 km/h (0 Bft)
10.04.2026 14:00 1,5 °C 46 % 1018,6 hPa 1,4 l/m² 0,0 km/h (0 Bft) N 0,00 h -8,8 °C 1,5 °C 0,0 km/h (0 Bft)
10.04.2026 15:00 2,1 °C 48 % 1018,1 hPa 0,7 l/m² 0,0 km/h (0 Bft) N 0,00 h -7,7 °C 2,1 °C 0,0 km/h (0 Bft)
10.04.2026 16:00 2,5 °C 50 % 1018,0 hPa 0,0 l/m² 0,0 km/h (0 Bft) N 0,00 h -7,0 °C 2,5 °C 0,0 km/h (0 Bft)
10.04.2026 17:00 2,9 °C 52 % 1017,6 hPa 0,0 l/m² 0,0 km/h (0 Bft) N 0,00 h -6,0 °C 2,9 °C 0,1 km/h (0 Bft)
10.04.2026 18:00 3,2 °C 53 % 1017,2 hPa 0,0 l/m² 0,0 km/h (0 Bft) N 0,00 h -5,6 °C 3,2 °C 0,0 km/h (0 Bft)
10.04.2026 19:00 3,3 °C 54 % 1017,3 hPa 0,0 l/m² 0,0 km/h (0 Bft) N 0,00 h -5,1 °C 3,3 °C 0,0 km/h (0 Bft)
10.04.2026 20:00 3,0 °C 55 % 1018,6 hPa 0,0 l/m² 0,0 km/h (0 Bft) N 0,00 h -5,0 °C 3,0 °C 0,0 km/h (0 Bft)
10.04.2026 21:00 2,9 °C 56 % 1019,4 hPa 0,0 l/m² 0,0 km/h (0 Bft) N 0,00 h -5,0 °C 2,9 °C 0,0 km/h (0 Bft)
10.04.2026 22:00 3,1 °C 58 % 1019,6 hPa 0,0 l/m² 0,0 km/h (0 Bft) N 0,00 h -4,5 °C 3,1 °C 0,0 km/h (0 Bft)
10.04.2026 23:00 3,3 °C 59 % 1019,1 hPa 0,0 l/m² 0,0 km/h (0 Bft) N 0,00 h -4,0 °C 3,3 °C 0,0 km/h (0 Bft)
11.04.2026 00:00 3,4 °C 59 % 1018,9 hPa 0,0 l/m² 0,0 km/h (0 Bft) N 0,00 h -3,9 °C 3,4 °C 0,0 km/h (0 Bft)
11.04.2026 01:00 2,9 °C 62 % 1018,3 hPa 0,0 l/m² 0,0 km/h (0 Bft) N 0,00 h -3,5 °C 2,9 °C 0,0 km/h (0 Bft)
11.04.2026 02:00 2,2 °C 65 % 1018,0 hPa 0,0 l/m² 0,0 km/h (0 Bft) N 0,00 h -3,8 °C 2,2 °C 0,1 km/h (0 Bft)
11.04.2026 03:00 1,7 °C 64 % 1017,7 hPa 0,0 l/m² 0,0 km/h (0 Bft) N 0,00 h -4,3 °C 1,7 °C 0,0 km/h (0 Bft)
11.04.2026 04:00 1,7 °C 64 % 1017,5 hPa 0,0 l/m² 0,0 km/h (0 Bft) N 0,00 h -4,5 °C 1,7 °C 0,0 km/h (0 Bft)
11.04.2026 05:00 1,2 °C 64 % 1017,5 hPa 0,0 l/m² 0,0 km/h (0 Bft) N 0,00 h -4,8 °C 1,2 °C 0,0 km/h (0 Bft)
11.04.2026 06:00 1,5 °C 66 % 1017,4 hPa 0,0 l/m² 0,0 km/h (0 Bft) N 0,00 h -4,1 °C 1,5 °C 0,0 km/h (0 Bft)
11.04.2026 07:00 2,0 °C 68 % 1018,1 hPa 0,7 l/m² 0,0 km/h (0 Bft) N 0,00 h -3,2 °C 2,0 °C 0,1 km/h (0 Bft)
11.04.2026 08:00 3,4 °C 69 % 1018,6 hPa 0,0 l/m² 0,1 km/h (0 Bft) N 0,00 h -1,8 °C 3,4 °C 0,2 km/h (0 Bft)
11.04.2026 09:00 5,3 °C 64 % 1018,4 hPa 0,0 l/m² 0,7 km/h (0 Bft) SW 0,00 h -1,0 °C 5,3 °C 1,5 km/h (1 Bft)
11.04.2026 10:00 7,1 °C 60 % 1018,2 hPa 0,0 l/m² 1,0 km/h (0 Bft) W-SW 0,00 h -0,2 °C 7,1 °C 1,9 km/h (1 Bft)
11.04.2026 11:00 9,3 °C 56 % 1018,2 hPa 0,0 l/m² 0,8 km/h (0 Bft) O-SO 0,53 h 1,0 °C 9,3 °C 1,3 km/h (1 Bft)
11.04.2026 12:00 10,5 °C 51 % 1017,9 hPa 0,0 l/m² 1,7 km/h (1 Bft) NW 0,33 h 0,8 °C 10,5 °C 2,8 km/h (1 Bft)
11.04.2026 13:00 11,3 °C 48 % 1017,3 hPa 0,0 l/m² 1,3 km/h (1 Bft) W 1,00 h 0,6 °C 11,3 °C 2,2 km/h (1 Bft)
11.04.2026 14:00 12,5 °C 47 % 1016,8 hPa 0,0 l/m² 1,1 km/h (0 Bft) S-SW 1,00 h 1,4 °C 12,5 °C 1,4 km/h (1 Bft)
11.04.2026 15:00 12,9 °C 45 % 1016,2 hPa 0,0 l/m² 1,3 km/h (1 Bft) W 1,00 h 1,2 °C 12,9 °C 1,6 km/h (1 Bft)
11.04.2026 16:00 13,5 °C 43 % 1016,0 hPa 0,0 l/m² 0,5 km/h (0 Bft) N 1,00 h 1,3 °C 13,5 °C 0,9 km/h (0 Bft)
11.04.2026 17:00 13,1 °C 43 % 1015,8 hPa 0,0 l/m² 0,1 km/h (0 Bft) N 1,00 h 0,9 °C 13,1 °C 0,1 km/h (0 Bft)
11.04.2026 18:00 12,7 °C 43 % 1015,7 hPa 0,0 l/m² 0,1 km/h (0 Bft) N 0,63 h 0,4 °C 12,7 °C 0,1 km/h (0 Bft)
11.04.2026 19:00 9,9 °C 46 % 1015,8 hPa 0,0 l/m² 0,0 km/h (0 Bft) N 0,00 h -1,3 °C 9,9 °C 0,0 km/h (0 Bft)
11.04.2026 20:00 8,2 °C 48 % 1016,3 hPa 0,0 l/m² 0,0 km/h (0 Bft) N 0,00 h -2,1 °C 8,2 °C 0,0 km/h (0 Bft)
11.04.2026 21:00 8,5 °C 49 % 1016,8 hPa 0,0 l/m² 0,0 km/h (0 Bft) N 0,00 h -1,5 °C 8,5 °C 0,0 km/h (0 Bft)
11.04.2026 22:00 9,2 °C 49 % 1016,5 hPa 0,0 l/m² 0,0 km/h (0 Bft) N 0,00 h -1,0 °C 9,2 °C 0,0 km/h (0 Bft)
11.04.2026 23:00 9,0 °C 49 % 1016,5 hPa 0,0 l/m² 0,0 km/h (0 Bft) N 0,00 h -1,1 °C 9,0 °C 0,0 km/h (0 Bft)
12.04.2026 00:00 8,8 °C 49 % 1016,0 hPa 0,0 l/m² 0,0 km/h (0 Bft) N 0,00 h -1,2 °C 8,8 °C 0,0 km/h (0 Bft)
12.04.2026 01:00 8,5 °C 51 % 1015,8 hPa 0,0 l/m² 0,0 km/h (0 Bft) N 0,00 h -1,2 °C 8,5 °C 0,0 km/h (0 Bft)
12.04.2026 02:00 7,1 °C 49 % 1015,6 hPa 0,0 l/m² 0,1 km/h (0 Bft) N 0,00 h -2,7 °C 7,1 °C 0,1 km/h (0 Bft)
12.04.2026 03:00 5,7 °C 51 % 1015,2 hPa 0,0 l/m² 0,0 km/h (0 Bft) N 0,00 h -3,6 °C 5,7 °C 0,0 km/h (0 Bft)
12.04.2026 04:00 4,9 °C 54 % 1014,8 hPa 0,0 l/m² 0,0 km/h (0 Bft) N 0,00 h -3,5 °C 4,9 °C 0,0 km/h (0 Bft)
12.04.2026 05:00 4,2 °C 57 % 1014,6 hPa 0,0 l/m² 0,0 km/h (0 Bft) N 0,00 h -3,5 °C 4,2 °C 0,0 km/h (0 Bft)
12.04.2026 06:00 4,3 °C 57 % 1014,8 hPa 0,0 l/m² 0,0 km/h (0 Bft) N 0,00 h -3,4 °C 4,3 °C 0,0 km/h (0 Bft)
12.04.2026 07:00 4,8 °C 56 % 1014,8 hPa 0,0 l/m² 0,0 km/h (0 Bft) N 0,00 h -3,3 °C 4,8 °C 0,0 km/h (0 Bft)
12.04.2026 08:00 5,6 °C 56 % 1014,9 hPa 0,0 l/m² 0,0 km/h (0 Bft) N 0,00 h -2,5 °C 5,6 °C 0,0 km/h (0 Bft)
12.04.2026 09:00 6,7 °C 56 % 1015,1 hPa 0,0 l/m² 0,2 km/h (0 Bft) N 0,00 h -1,4 °C 6,7 °C 0,4 km/h (0 Bft)
12.04.2026 10:00 8,8 °C 57 % 1014,9 hPa 0,0 l/m² 0,2 km/h (0 Bft) N 0,00 h 0,8 °C 8,8 °C 0,1 km/h (0 Bft)
12.04.2026 11:00 12,4 °C 55 % 1014,9 hPa 0,0 l/m² 0,2 km/h (0 Bft) N 0,87 h 3,5 °C 12,4 °C 0,5 km/h (0 Bft)
12.04.2026 12:00 15,6 °C 51 % 1014,3 hPa 0,0 l/m² 0,4 km/h (0 Bft) N 1,00 h 5,4 °C 15,6 °C 0,8 km/h (0 Bft)
12.04.2026 13:00 16,2 °C 48 % 1014,1 hPa 0,0 l/m² 0,6 km/h (0 Bft) SW 1,00 h 5,2 °C 16,2 °C 1,5 km/h (1 Bft)
12.04.2026 14:00 18,1 °C 46 % 1013,4 hPa 0,0 l/m² 0,9 km/h (0 Bft) W-SW 1,00 h 6,4 °C 18,1 °C 1,9 km/h (1 Bft)
12.04.2026 15:00 18,0 °C 44 % 1014,4 hPa 0,0 l/m² 0,3 km/h (0 Bft) N 1,00 h 5,7 °C 18,0 °C 0,3 km/h (0 Bft)
12.04.2026 16:00 16,8 °C 43 % 1014,4 hPa 0,0 l/m² 0,2 km/h (0 Bft) N 0,63 h 4,0 °C 16,8 °C 0,4 km/h (0 Bft)
12.04.2026 17:00 16,0 °C 41 % 1014,4 hPa 0,0 l/m² 0,2 km/h (0 Bft) N 0,50 h 2,7 °C 16,0 °C 0,4 km/h (0 Bft)
12.04.2026 18:00 15,1 °C 40 % 1014,9 hPa 0,0 l/m² 0,0 km/h (0 Bft) N 0,00 h 1,6 °C 15,1 °C 0,0 km/h (0 Bft)
12.04.2026 19:00 13,5 °C 39 % 1014,9 hPa 0,0 l/m² 0,0 km/h (0 Bft) N 0,00 h -0,2 °C 13,5 °C 0,1 km/h (0 Bft)
12.04.2026 20:00 11,9 °C 39 % 1015,5 hPa 0,0 l/m² 0,0 km/h (0 Bft) N 0,00 h -1,6 °C 11,9 °C 0,0 km/h (0 Bft)
12.04.2026 21:00 11,4 °C 39 % 1015,8 hPa 0,0 l/m² 0,0 km/h (0 Bft) N 0,00 h -2,0 °C 11,4 °C 0,0 km/h (0 Bft)
12.04.2026 22:00 11,3 °C 39 % 1015,5 hPa 0,0 l/m² 0,1 km/h (0 Bft) N 0,00 h -2,1 °C 11,3 °C 0,2 km/h (0 Bft)
12.04.2026 23:00 11,1 °C 39 % 1015,0 hPa 0,0 l/m² 0,0 km/h (0 Bft) N 0,00 h -2,4 °C 11,1 °C 0,1 km/h (0 Bft)
Min-Datum _ 10.04.26 07.04.26 12.04.26 - 06.04.26 - - 10.04.26 10.04.26 06.04.26
_ Min-Zeit 06:12 15:14 14:34 - 01:50 - - 03:30 06:12 01:10
Minimum _ -0,1 °C 25 % 1013,2 hPa - 0,0 km/h (0 Bft) - - -15,5 °C -0,1 °C 0,0 km/h (0 Bft)
Max-Datum _ 07.04.26 11.04.26 08.04.26 10.04.26 06.04.26 - 06.04.26 12.04.26 07.04.26 06.04.26
_ Max-Zeit 16:16 07:52 07:34 13:22 12:12 - 13:46 14:54 16:16 09:26
Maximum _ 20,2 °C 70 % 1026,2 hPa 1,4 l/m² 6,6 km/h
N-NO (2 Bft)
- 0,02 h 6,8 °C 20,2 °C 18,7 km/h
NW (3 Bft)
Durchschnitt _ 9,3 °C 37 % 1020,0 hPa #4,1 l/m² 1,1 km/h (0 Bft) W #32:00 h -5,2 °C 9,3 °C 1,5 km/h (1 Bft)